sensor_id;sensor_type;location;lat;lon;timestamp;noise_LAeq;noise_LA_min;noise_LA_max;noise_LA01;noise_LA95
49215;Laerm;45943;53.148;8.204;2023-01-26T00:01:25;40.27;34.91;47.26;;
49215;Laerm;45943;53.148;8.204;2023-01-26T00:03:55;40.09;35.29;49.60;;
49215;Laerm;45943;53.148;8.204;2023-01-26T00:06:22;39.86;35.29;48.80;;
49215;Laerm;45943;53.148;8.204;2023-01-26T00:08:50;40.39;35.64;48.10;;
49215;Laerm;45943;53.148;8.204;2023-01-26T00:11:19;39.96;34.91;46.32;;
49215;Laerm;45943;53.148;8.204;2023-01-26T00:13:48;51.10;35.96;71.10;;
49215;Laerm;45943;53.148;8.204;2023-01-26T00:16:14;40.04;35.96;47.29;;
49215;Laerm;45943;53.148;8.204;2023-01-26T00:18:41;41.97;36.26;59.15;;
49215;Laerm;45943;53.148;8.204;2023-01-26T00:21:11;46.08;35.64;64.24;;
49215;Laerm;45943;53.148;8.204;2023-01-26T00:23:38;40.47;36.80;46.29;;
49215;Laerm;45943;53.148;8.204;2023-01-26T00:26:13;48.50;36.26;69.44;;
49215;Laerm;45943;53.148;8.204;2023-01-26T00:28:40;40.86;36.80;43.58;;
49215;Laerm;45943;53.148;8.204;2023-01-26T00:31:10;41.28;37.51;49.20;;
49215;Laerm;45943;53.148;8.204;2023-01-26T00:33:37;41.42;37.58;52.15;;
49215;Laerm;45943;53.148;8.204;2023-01-26T00:36:03;41.38;38.30;46.17;;
49215;Laerm;45943;53.148;8.204;2023-01-26T00:38:30;47.51;36.26;59.30;;
49215;Laerm;45943;53.148;8.204;2023-01-26T00:40:56;45.65;36.54;56.67;;
49215;Laerm;45943;53.148;8.204;2023-01-26T00:43:22;40.62;34.50;44.83;;
49215;Laerm;45943;53.148;8.204;2023-01-26T00:45:48;39.91;34.91;47.92;;
49215;Laerm;45943;53.148;8.204;2023-01-26T00:48:15;39.80;34.50;48.51;;
49215;Laerm;45943;53.148;8.204;2023-01-26T00:50:41;40.00;35.29;45.14;;
49215;Laerm;45943;53.148;8.204;2023-01-26T00:53:08;41.57;34.04;63.00;;
49215;Laerm;45943;53.148;8.204;2023-01-26T00:55:34;49.50;35.64;69.21;;
49215;Laerm;45943;53.148;8.204;2023-01-26T00:58:02;40.05;35.64;46.11;;
49215;Laerm;45943;53.148;8.204;2023-01-26T01:00:29;39.44;34.04;42.82;;
49215;Laerm;45943;53.148;8.204;2023-01-26T01:02:57;40.49;36.80;44.54;;
49215;Laerm;45943;53.148;8.204;2023-01-26T01:05:24;39.64;34.91;42.21;;
49215;Laerm;45943;53.148;8.204;2023-01-26T01:07:50;39.81;35.61;43.48;;
49215;Laerm;45943;53.148;8.204;2023-01-26T01:10:16;39.47;32.28;42.13;;
49215;Laerm;45943;53.148;8.204;2023-01-26T01:12:42;39.73;35.64;45.93;;
49215;Laerm;45943;53.148;8.204;2023-01-26T01:15:09;40.38;36.26;52.35;;
49215;Laerm;45943;53.148;8.204;2023-01-26T01:17:35;39.66;35.29;45.29;;
49215;Laerm;45943;53.148;8.204;2023-01-26T01:20:03;39.81;34.91;44.59;;
49215;Laerm;45943;53.148;8.204;2023-01-26T01:22:34;40.96;36.54;54.35;;
49215;Laerm;45943;53.148;8.204;2023-01-26T01:25:01;39.60;33.53;45.43;;
49215;Laerm;45943;53.148;8.204;2023-01-26T01:27:27;40.07;36.19;45.99;;
49215;Laerm;45943;53.148;8.204;2023-01-26T01:29:53;41.23;36.46;46.05;;
49215;Laerm;45943;53.148;8.204;2023-01-26T01:32:20;39.97;35.29;44.14;;
49215;Laerm;45943;53.148;8.204;2023-01-26T01:34:46;40.96;36.26;47.76;;
49215;Laerm;45943;53.148;8.204;2023-01-26T01:37:13;51.35;36.26;73.14;;
49215;Laerm;45943;53.148;8.204;2023-01-26T01:39:39;64.22;36.26;73.92;;
49215;Laerm;45943;53.148;8.204;2023-01-26T01:42:05;41.68;35.64;55.81;;
49215;Laerm;45943;53.148;8.204;2023-01-26T01:44:35;52.59;35.29;73.47;;
49215;Laerm;45943;53.148;8.204;2023-01-26T01:47:04;40.00;33.53;43.74;;
49215;Laerm;45943;53.148;8.204;2023-01-26T01:49:43;40.10;34.91;44.28;;
49215;Laerm;45943;53.148;8.204;2023-01-26T01:52:15;39.82;35.29;43.25;;
49215;Laerm;45943;53.148;8.204;2023-01-26T01:57:24;40.07;34.50;57.22;;
49215;Laerm;45943;53.148;8.204;2023-01-26T02:00:14;40.04;35.96;45.77;;
49215;Laerm;45943;53.148;8.204;2023-01-26T02:02:43;43.92;36.80;56.61;;
49215;Laerm;45943;53.148;8.204;2023-01-26T02:05:32;40.60;35.29;43.64;;
49215;Laerm;45943;53.148;8.204;2023-01-26T02:08:02;40.07;32.95;42.89;;
49215;Laerm;45943;53.148;8.204;2023-01-26T02:10:29;40.12;35.29;44.99;;
49215;Laerm;45943;53.148;8.204;2023-01-26T02:12:55;39.91;35.29;43.13;;
49215;Laerm;45943;53.148;8.204;2023-01-26T02:15:22;40.68;36.54;44.50;;
49215;Laerm;45943;53.148;8.204;2023-01-26T02:17:51;41.44;37.05;49.70;;
49215;Laerm;45943;53.148;8.204;2023-01-26T02:20:51;40.88;37.37;45.18;;
49215;Laerm;45943;53.148;8.204;2023-01-26T02:23:45;41.71;38.65;50.54;;
49215;Laerm;45943;53.148;8.204;2023-01-26T02:26:15;40.98;37.29;49.47;;
49215;Laerm;45943;53.148;8.204;2023-01-26T02:28:45;40.89;37.05;45.83;;
49215;Laerm;45943;53.148;8.204;2023-01-26T02:31:14;40.33;36.54;42.76;;
49215;Laerm;45943;53.148;8.204;2023-01-26T02:33:41;40.82;37.05;43.99;;
49215;Laerm;45943;53.148;8.204;2023-01-26T02:36:16;40.21;35.96;46.40;;
49215;Laerm;45943;53.148;8.204;2023-01-26T02:38:48;40.70;37.05;44.23;;
49215;Laerm;45943;53.148;8.204;2023-01-26T02:41:17;40.76;36.80;43.53;;
49215;Laerm;45943;53.148;8.204;2023-01-26T02:44:08;41.14;37.29;49.55;;
49215;Laerm;45943;53.148;8.204;2023-01-26T02:46:37;40.93;36.80;50.32;;
49215;Laerm;45943;53.148;8.204;2023-01-26T02:49:07;40.85;36.54;50.11;;
49215;Laerm;45943;53.148;8.204;2023-01-26T02:51:54;49.32;38.30;69.38;;
49215;Laerm;45943;53.148;8.204;2023-01-26T02:54:23;41.35;37.29;48.17;;
49215;Laerm;45943;53.148;8.204;2023-01-26T02:57:08;41.14;37.72;46.83;;
49215;Laerm;45943;53.148;8.204;2023-01-26T02:59:35;41.78;37.92;54.83;;
49215;Laerm;45943;53.148;8.204;2023-01-26T03:02:01;41.76;38.48;53.93;;
49215;Laerm;45943;53.148;8.204;2023-01-26T03:04:28;41.46;37.72;45.25;;
49215;Laerm;45943;53.148;8.204;2023-01-26T03:06:58;41.57;37.72;52.21;;
49215;Laerm;45943;53.148;8.204;2023-01-26T03:09:24;42.68;38.81;52.75;;
49215;Laerm;45943;53.148;8.204;2023-01-26T03:11:52;44.04;38.97;50.60;;
49215;Laerm;45943;53.148;8.204;2023-01-26T03:14:21;41.80;38.48;46.05;;
49215;Laerm;45943;53.148;8.204;2023-01-26T03:16:48;42.17;38.30;45.03;;
49215;Laerm;45943;53.148;8.204;2023-01-26T03:19:16;42.73;39.94;47.94;;
49215;Laerm;45943;53.148;8.204;2023-01-26T03:22:01;42.87;38.78;58.41;;
49215;Laerm;45943;53.148;8.204;2023-01-26T03:24:46;41.94;38.97;46.70;;
49215;Laerm;45943;53.148;8.204;2023-01-26T03:27:37;60.26;38.81;76.80;;
49215;Laerm;45943;53.148;8.204;2023-01-26T03:30:06;42.15;38.12;51.91;;
49215;Laerm;45943;53.148;8.204;2023-01-26T03:32:32;49.37;39.68;70.85;;
49215;Laerm;45943;53.148;8.204;2023-01-26T03:34:59;44.79;39.59;61.22;;
49215;Laerm;45943;53.148;8.204;2023-01-26T03:37:28;42.10;39.68;46.78;;
49215;Laerm;45943;53.148;8.204;2023-01-26T03:39:59;42.26;38.97;49.18;;
49215;Laerm;45943;53.148;8.204;2023-01-26T03:42:43;41.97;38.81;47.62;;
49215;Laerm;45943;53.148;8.204;2023-01-26T03:45:28;41.77;39.41;50.83;;
49215;Laerm;45943;53.148;8.204;2023-01-26T03:48:13;50.27;39.12;70.20;;
49215;Laerm;45943;53.148;8.204;2023-01-26T03:50:57;54.20;38.97;73.78;;
49215;Laerm;45943;53.148;8.204;2023-01-26T03:53:44;41.98;38.65;45.85;;
49215;Laerm;45943;53.148;8.204;2023-01-26T03:56:29;43.71;40.18;60.58;;
49215;Laerm;45943;53.148;8.204;2023-01-26T03:59:00;48.09;39.81;65.11;;
49215;Laerm;45943;53.148;8.204;2023-01-26T04:01:35;42.26;39.41;46.40;;
49215;Laerm;45943;53.148;8.204;2023-01-26T04:04:03;64.05;39.81;77.48;;
49215;Laerm;45943;53.148;8.204;2023-01-26T04:06:48;56.19;40.73;73.62;;
49215;Laerm;45943;53.148;8.204;2023-01-26T04:09:36;43.84;40.63;47.64;;
49215;Laerm;45943;53.148;8.204;2023-01-26T04:15:23;43.54;40.41;55.67;;
49215;Laerm;45943;53.148;8.204;2023-01-26T04:18:15;42.86;40.18;48.32;;
49215;Laerm;45943;53.148;8.204;2023-01-26T04:21:12;52.60;40.30;72.62;;
49215;Laerm;45943;53.148;8.204;2023-01-26T04:24:21;52.60;40.41;68.05;;
49215;Laerm;45943;53.148;8.204;2023-01-26T04:27:13;52.40;41.03;72.11;;
49215;Laerm;45943;53.148;8.204;2023-01-26T04:29:42;47.24;40.18;66.47;;
49215;Laerm;45943;53.148;8.204;2023-01-26T04:32:22;43.43;40.18;53.95;;
49215;Laerm;45943;53.148;8.204;2023-01-26T04:34:49;43.15;40.41;46.29;;
49215;Laerm;45943;53.148;8.204;2023-01-26T04:37:29;51.29;40.63;68.65;;
49215;Laerm;45943;53.148;8.204;2023-01-26T04:40:00;56.98;41.22;70.77;;
49215;Laerm;45943;53.148;8.204;2023-01-26T04:42:34;53.27;41.74;69.66;;
49215;Laerm;45943;53.148;8.204;2023-01-26T04:45:06;47.92;41.66;72.33;;
49215;Laerm;45943;53.148;8.204;2023-01-26T04:47:37;46.51;41.40;74.33;;
49215;Laerm;45943;53.148;8.204;2023-01-26T04:50:15;48.57;41.22;76.37;;
49215;Laerm;45943;53.148;8.204;2023-01-26T04:52:47;53.38;41.13;70.13;;
49215;Laerm;45943;53.148;8.204;2023-01-26T04:55:16;53.01;41.31;72.76;;
49215;Laerm;45943;53.148;8.204;2023-01-26T04:57:53;43.73;41.13;47.08;;
49215;Laerm;45943;53.148;8.204;2023-01-26T05:00:24;52.58;41.49;70.35;;
49215;Laerm;45943;53.148;8.204;2023-01-26T05:03:00;48.70;41.66;66.88;;
49215;Laerm;45943;53.148;8.204;2023-01-26T05:05:37;51.77;41.31;73.11;;
49215;Laerm;45943;53.148;8.204;2023-01-26T05:08:09;47.02;41.13;63.04;;
49215;Laerm;45943;53.148;8.204;2023-01-26T05:10:43;53.43;41.49;74.56;;
49215;Laerm;45943;53.148;8.204;2023-01-26T05:13:15;44.89;41.03;63.99;;
49215;Laerm;45943;53.148;8.204;2023-01-26T05:15:46;44.29;41.90;51.31;;
49215;Laerm;45943;53.148;8.204;2023-01-26T05:18:17;43.50;41.31;46.26;;
49215;Laerm;45943;53.148;8.204;2023-01-26T05:20:49;52.81;41.49;72.10;;
49215;Laerm;45943;53.148;8.204;2023-01-26T05:23:15;55.49;42.13;71.47;;
49215;Laerm;45943;53.148;8.204;2023-01-26T05:25:49;53.77;41.74;74.17;;
49215;Laerm;45943;53.148;8.204;2023-01-26T05:28:26;50.77;42.56;71.31;;
49215;Laerm;45943;53.148;8.204;2023-01-26T05:30:58;50.56;42.63;69.57;;
49215;Laerm;45943;53.148;8.204;2023-01-26T05:33:24;56.44;42.21;72.64;;
49215;Laerm;45943;53.148;8.204;2023-01-26T05:36:09;52.12;42.63;70.17;;
49215;Laerm;45943;53.148;8.204;2023-01-26T05:38:40;53.84;42.69;69.95;;
49215;Laerm;45943;53.148;8.204;2023-01-26T05:41:07;50.59;41.58;70.62;;
49215;Laerm;45943;53.148;8.204;2023-01-26T05:43:35;56.03;42.35;73.45;;
49215;Laerm;45943;53.148;8.204;2023-01-26T05:46:04;55.11;42.21;70.58;;
49215;Laerm;45943;53.148;8.204;2023-01-26T05:48:30;53.11;41.90;70.23;;
49215;Laerm;45943;53.148;8.204;2023-01-26T05:50:56;62.22;41.66;87.74;;
49215;Laerm;45943;53.148;8.204;2023-01-26T05:53:23;54.13;41.74;75.02;;
49215;Laerm;45943;53.148;8.204;2023-01-26T05:55:49;50.87;41.66;66.45;;
49215;Laerm;45943;53.148;8.204;2023-01-26T05:58:15;49.97;41.03;66.98;;
49215;Laerm;45943;53.148;8.204;2023-01-26T06:00:41;48.03;41.13;65.86;;
49215;Laerm;45943;53.148;8.204;2023-01-26T06:03:07;52.44;40.41;68.67;;
49215;Laerm;45943;53.148;8.204;2023-01-26T06:05:33;54.86;41.40;69.75;;
49215;Laerm;45943;53.148;8.204;2023-01-26T06:07:59;49.95;41.98;63.23;;
49215;Laerm;45943;53.148;8.204;2023-01-26T06:10:25;53.00;41.90;69.12;;
49215;Laerm;45943;53.148;8.204;2023-01-26T06:12:51;54.05;42.06;70.88;;
49215;Laerm;45943;53.148;8.204;2023-01-26T06:15:17;57.30;42.42;73.37;;
49215;Laerm;45943;53.148;8.204;2023-01-26T06:17:43;56.56;43.42;69.56;;
49215;Laerm;45943;53.148;8.204;2023-01-26T06:20:09;55.50;41.82;69.63;;
49215;Laerm;45943;53.148;8.204;2023-01-26T06:22:35;56.49;42.28;70.85;;
49215;Laerm;45943;53.148;8.204;2023-01-26T06:25:01;54.76;42.21;68.22;;
49215;Laerm;45943;53.148;8.204;2023-01-26T06:27:27;56.15;44.28;69.89;;
49215;Laerm;45943;53.148;8.204;2023-01-26T06:29:54;55.31;42.89;70.35;;
49215;Laerm;45943;53.148;8.204;2023-01-26T06:32:20;55.38;42.06;84.71;;
49215;Laerm;45943;53.148;8.204;2023-01-26T06:34:46;56.09;42.69;69.56;;
49215;Laerm;45943;53.148;8.204;2023-01-26T06:37:12;56.27;41.90;68.34;;
49215;Laerm;45943;53.148;8.204;2023-01-26T06:39:38;67.27;40.06;89.39;;
49215;Laerm;45943;53.148;8.204;2023-01-26T06:42:07;64.11;45.54;83.97;;
49215;Laerm;45943;53.148;8.204;2023-01-26T06:44:33;57.97;42.95;72.50;;
49215;Laerm;45943;53.148;8.204;2023-01-26T06:46:59;59.37;43.53;75.80;;
49215;Laerm;45943;53.148;8.204;2023-01-26T06:49:25;56.07;42.69;80.21;;
49215;Laerm;45943;53.148;8.204;2023-01-26T06:52:20;56.43;42.89;68.65;;
49215;Laerm;45943;53.148;8.204;2023-01-26T06:54:48;57.65;43.31;69.16;;
49215;Laerm;45943;53.148;8.204;2023-01-26T06:57:15;58.15;44.95;70.57;;
49215;Laerm;45943;53.148;8.204;2023-01-26T06:59:41;55.61;43.79;70.48;;
49215;Laerm;45943;53.148;8.204;2023-01-26T07:02:15;56.60;43.74;68.09;;
49215;Laerm;45943;53.148;8.204;2023-01-26T07:04:41;62.70;43.84;70.31;;
49215;Laerm;45943;53.148;8.204;2023-01-26T07:07:07;58.19;43.25;70.89;;
49215;Laerm;45943;53.148;8.204;2023-01-26T07:09:33;59.69;42.95;71.27;;
49215;Laerm;45943;53.148;8.204;2023-01-26T07:11:59;62.88;43.25;81.13;;
49215;Laerm;45943;53.148;8.204;2023-01-26T07:14:25;64.39;46.20;80.20;;
49215;Laerm;45943;53.148;8.204;2023-01-26T07:16:51;58.41;42.49;72.11;;
49215;Laerm;45943;53.148;8.204;2023-01-26T07:19:17;60.27;44.37;78.44;;
49215;Laerm;45943;53.148;8.204;2023-01-26T07:21:43;59.72;44.14;78.12;;
49215;Laerm;45943;53.148;8.204;2023-01-26T07:24:09;54.72;44.04;69.63;;
49215;Laerm;45943;53.148;8.204;2023-01-26T07:26:35;54.87;44.04;70.56;;
49215;Laerm;45943;53.148;8.204;2023-01-26T07:29:01;52.97;43.01;66.91;;
49215;Laerm;45943;53.148;8.204;2023-01-26T07:31:27;58.23;41.90;77.98;;
49215;Laerm;45943;53.148;8.204;2023-01-26T07:33:53;51.46;42.35;66.59;;
49215;Laerm;45943;53.148;8.204;2023-01-26T07:36:19;55.83;42.89;70.85;;
49215;Laerm;45943;53.148;8.204;2023-01-26T07:38:45;53.82;42.49;72.00;;
49215;Laerm;45943;53.148;8.204;2023-01-26T07:41:12;58.51;44.54;72.22;;
49215;Laerm;45943;53.148;8.204;2023-01-26T07:43:38;60.24;43.01;73.93;;
49215;Laerm;45943;53.148;8.204;2023-01-26T07:46:06;57.40;43.31;73.06;;
49215;Laerm;45943;53.148;8.204;2023-01-26T07:48:32;56.29;43.36;69.37;;
49215;Laerm;45943;53.148;8.204;2023-01-26T07:51:00;57.11;43.74;70.36;;
49215;Laerm;45943;53.148;8.204;2023-01-26T07:53:27;57.28;44.23;74.05;;
49215;Laerm;45943;53.148;8.204;2023-01-26T07:56:04;53.72;43.31;68.67;;
49215;Laerm;45943;53.148;8.204;2023-01-26T07:58:31;55.99;43.25;70.93;;
49215;Laerm;45943;53.148;8.204;2023-01-26T08:01:05;59.77;43.79;78.37;;
49215;Laerm;45943;53.148;8.204;2023-01-26T08:03:31;66.99;44.63;82.82;;
49215;Laerm;45943;53.148;8.204;2023-01-26T08:05:57;68.15;47.76;83.40;;
49215;Laerm;45943;53.148;8.204;2023-01-26T08:08:23;59.85;44.50;86.67;;
49215;Laerm;45943;53.148;8.204;2023-01-26T08:10:49;57.34;43.31;71.00;;
49215;Laerm;45943;53.148;8.204;2023-01-26T08:13:15;56.97;43.84;72.72;;
49215;Laerm;45943;53.148;8.204;2023-01-26T08:15:41;56.94;45.14;71.52;;
49215;Laerm;45943;53.148;8.204;2023-01-26T08:18:07;55.06;43.69;72.57;;
49215;Laerm;45943;53.148;8.204;2023-01-26T08:20:33;55.96;44.14;69.95;;
49215;Laerm;45943;53.148;8.204;2023-01-26T08:22:59;64.65;45.64;77.26;;
49215;Laerm;45943;53.148;8.204;2023-01-26T08:25:25;54.63;44.83;68.20;;
49215;Laerm;45943;53.148;8.204;2023-01-26T08:27:53;58.89;45.33;70.59;;
49215;Laerm;45943;53.148;8.204;2023-01-26T08:30:19;60.79;43.99;80.35;;
49215;Laerm;45943;53.148;8.204;2023-01-26T08:32:45;56.44;43.31;70.72;;
49215;Laerm;45943;53.148;8.204;2023-01-26T08:35:11;60.81;45.40;76.06;;
49215;Laerm;45943;53.148;8.204;2023-01-26T08:37:37;56.22;45.07;80.04;;
49215;Laerm;45943;53.148;8.204;2023-01-26T08:40:03;55.64;45.03;67.34;;
49215;Laerm;45943;53.148;8.204;2023-01-26T08:42:30;55.53;44.45;69.59;;
49215;Laerm;45943;53.148;8.204;2023-01-26T08:44:57;54.95;45.18;68.91;;
49215;Laerm;45943;53.148;8.204;2023-01-26T08:47:23;53.86;45.96;67.91;;
49215;Laerm;45943;53.148;8.204;2023-01-26T08:49:49;54.63;44.83;69.81;;
49215;Laerm;45943;53.148;8.204;2023-01-26T08:52:18;56.24;45.47;71.85;;
49215;Laerm;45943;53.148;8.204;2023-01-26T08:55:01;54.41;45.96;67.10;;
49215;Laerm;45943;53.148;8.204;2023-01-26T08:57:27;52.34;45.22;72.86;;
49215;Laerm;45943;53.148;8.204;2023-01-26T08:59:53;55.81;46.75;69.62;;
49215;Laerm;45943;53.148;8.204;2023-01-26T09:02:19;56.22;45.83;77.93;;
49215;Laerm;45943;53.148;8.204;2023-01-26T09:04:45;56.65;46.46;73.48;;
49215;Laerm;45943;53.148;8.204;2023-01-26T09:07:12;54.15;46.17;67.97;;
49215;Laerm;45943;53.148;8.204;2023-01-26T09:09:38;56.15;45.57;70.78;;
49215;Laerm;45943;53.148;8.204;2023-01-26T09:12:04;61.05;45.43;72.78;;
49215;Laerm;45943;53.148;8.204;2023-01-26T09:14:30;53.22;45.64;67.46;;
49215;Laerm;45943;53.148;8.204;2023-01-26T09:16:56;55.99;46.40;66.44;;
49215;Laerm;45943;53.148;8.204;2023-01-26T09:19:22;53.11;46.37;65.30;;
49215;Laerm;45943;53.148;8.204;2023-01-26T09:21:54;56.50;47.00;69.69;;
49215;Laerm;45943;53.148;8.204;2023-01-26T09:24:20;56.03;47.12;67.65;;
49215;Laerm;45943;53.148;8.204;2023-01-26T09:26:47;55.33;46.17;67.85;;
49215;Laerm;45943;53.148;8.204;2023-01-26T09:29:13;52.71;46.43;66.36;;
49215;Laerm;45943;53.148;8.204;2023-01-26T09:31:39;54.71;46.23;69.28;;
49215;Laerm;45943;53.148;8.204;2023-01-26T09:34:05;52.36;46.51;61.92;;
49215;Laerm;45943;53.148;8.204;2023-01-26T09:36:31;54.26;45.71;71.63;;
49215;Laerm;45943;53.148;8.204;2023-01-26T09:38:58;58.83;45.74;71.44;;
49215;Laerm;45943;53.148;8.204;2023-01-26T09:44:15;56.28;45.14;71.20;;
49215;Laerm;45943;53.148;8.204;2023-01-26T09:46:53;63.75;45.14;79.13;;
49215;Laerm;45943;53.148;8.204;2023-01-26T09:49:35;61.51;45.33;78.80;;
49215;Laerm;45943;53.148;8.204;2023-01-26T09:52:17;55.44;45.14;72.85;;
49215;Laerm;45943;53.148;8.204;2023-01-26T09:54:50;54.03;44.83;70.67;;
49215;Laerm;45943;53.148;8.204;2023-01-26T09:57:36;56.16;44.79;70.67;;
49215;Laerm;45943;53.148;8.204;2023-01-26T10:05:24;60.10;45.25;78.27;;
49215;Laerm;45943;53.148;8.204;2023-01-26T10:07:53;57.84;45.29;74.09;;
49215;Laerm;45943;53.148;8.204;2023-01-26T10:10:28;55.40;45.14;70.76;;
49215;Laerm;45943;53.148;8.204;2023-01-26T10:12:57;54.75;46.37;68.59;;
49215;Laerm;45943;53.148;8.204;2023-01-26T10:15:35;56.25;47.53;67.42;;
49215;Laerm;45943;53.148;8.204;2023-01-26T10:18:07;56.43;45.11;70.92;;
49215;Laerm;45943;53.148;8.204;2023-01-26T10:20:50;57.30;46.46;72.49;;
49215;Laerm;45943;53.148;8.204;2023-01-26T10:23:26;56.33;46.02;71.28;;
49215;Laerm;45943;53.148;8.204;2023-01-26T10:26:00;54.85;47.01;67.88;;
49215;Laerm;45943;53.148;8.204;2023-01-26T10:28:29;55.49;45.54;69.03;;
49215;Laerm;45943;53.148;8.204;2023-01-26T10:30:56;54.55;45.11;68.96;;
49215;Laerm;45943;53.148;8.204;2023-01-26T10:33:33;53.62;45.93;67.03;;
49215;Laerm;45943;53.148;8.204;2023-01-26T10:36:05;54.80;46.90;70.40;;
49215;Laerm;45943;53.148;8.204;2023-01-26T10:41:02;56.63;47.33;69.78;;
49215;Laerm;45943;53.148;8.204;2023-01-26T10:43:31;56.41;47.74;68.30;;
49215;Laerm;45943;53.148;8.204;2023-01-26T10:46:02;53.43;46.08;66.43;;
49215;Laerm;45943;53.148;8.204;2023-01-26T10:48:28;54.59;47.94;68.04;;
49215;Laerm;45943;53.148;8.204;2023-01-26T10:51:13;55.06;47.12;67.10;;
49215;Laerm;45943;53.148;8.204;2023-01-26T10:53:40;53.01;46.40;67.06;;
49215;Laerm;45943;53.148;8.204;2023-01-26T10:56:15;55.35;47.03;70.14;;
49215;Laerm;45943;53.148;8.204;2023-01-26T10:58:51;54.45;46.88;67.05;;
49215;Laerm;45943;53.148;8.204;2023-01-26T11:01:19;56.21;47.53;69.27;;
49215;Laerm;45943;53.148;8.204;2023-01-26T11:04:10;54.62;47.68;67.58;;
49215;Laerm;45943;53.148;8.204;2023-01-26T11:06:37;56.27;48.32;68.76;;
49215;Laerm;45943;53.148;8.204;2023-01-26T11:11:35;53.90;45.90;66.73;;
49215;Laerm;45943;53.148;8.204;2023-01-26T11:14:18;55.37;45.02;69.60;;
49215;Laerm;45943;53.148;8.204;2023-01-26T11:16:59;59.60;45.64;76.48;;
49215;Laerm;45943;53.148;8.204;2023-01-26T11:19:52;55.86;44.54;72.31;;
49215;Laerm;45943;53.148;8.204;2023-01-26T11:22:49;55.75;44.67;69.93;;
49215;Laerm;45943;53.148;8.204;2023-01-26T11:25:27;56.58;43.19;71.86;;
49215;Laerm;45943;53.148;8.204;2023-01-26T11:31:15;57.71;44.04;71.56;;
49215;Laerm;45943;53.148;8.204;2023-01-26T11:37:14;56.04;43.01;69.56;;
49215;Laerm;45943;53.148;8.204;2023-01-26T11:39:55;54.41;43.13;67.35;;
49215;Laerm;45943;53.148;8.204;2023-01-26T11:45:19;53.95;42.49;68.21;;
49215;Laerm;45943;53.148;8.204;2023-01-26T11:58:47;51.31;43.36;64.90;;
49215;Laerm;45943;53.148;8.204;2023-01-26T12:01:20;55.90;43.84;68.86;;
49215;Laerm;45943;53.148;8.204;2023-01-26T12:03:51;54.14;43.13;70.04;;
49215;Laerm;45943;53.148;8.204;2023-01-26T12:06:19;51.84;43.74;67.71;;
49215;Laerm;45943;53.148;8.204;2023-01-26T12:08:54;61.63;47.36;76.85;;
49215;Laerm;45943;53.148;8.204;2023-01-26T12:13:54;57.55;43.58;71.17;;
49215;Laerm;45943;53.148;8.204;2023-01-26T12:16:46;52.95;43.89;69.34;;
49215;Laerm;45943;53.148;8.204;2023-01-26T12:22:21;57.67;44.18;71.45;;
49215;Laerm;45943;53.148;8.204;2023-01-26T12:24:54;54.52;43.07;70.94;;
49215;Laerm;45943;53.148;8.204;2023-01-26T12:27:27;59.23;43.79;74.67;;
49215;Laerm;45943;53.148;8.204;2023-01-26T12:30:07;50.82;43.01;68.53;;
49215;Laerm;45943;53.148;8.204;2023-01-26T12:32:44;55.21;43.13;69.97;;
49215;Laerm;45943;53.148;8.204;2023-01-26T12:35:11;56.61;43.34;70.80;;
49215;Laerm;45943;53.148;8.204;2023-01-26T12:37:46;51.88;42.82;68.47;;
49215;Laerm;45943;53.148;8.204;2023-01-26T12:43:18;55.21;43.13;70.50;;
49215;Laerm;45943;53.148;8.204;2023-01-26T12:45:49;59.72;43.42;75.64;;
49215;Laerm;45943;53.148;8.204;2023-01-26T12:48:20;51.58;42.49;65.74;;
49215;Laerm;45943;53.148;8.204;2023-01-26T12:50:56;55.02;43.19;70.08;;
49215;Laerm;45943;53.148;8.204;2023-01-26T12:53:30;51.76;43.07;65.62;;
49215;Laerm;45943;53.148;8.204;2023-01-26T12:56:16;52.07;42.54;66.10;;
49215;Laerm;45943;53.148;8.204;2023-01-26T12:58:46;51.37;42.13;70.81;;
49215;Laerm;45943;53.148;8.204;2023-01-26T13:01:18;56.65;42.49;71.23;;
49215;Laerm;45943;53.148;8.204;2023-01-26T13:03:52;57.84;42.08;73.83;;
49215;Laerm;45943;53.148;8.204;2023-01-26T13:06:22;47.51;42.13;61.36;;
49215;Laerm;45943;53.148;8.204;2023-01-26T13:11:50;57.08;44.04;69.81;;
49215;Laerm;45943;53.148;8.204;2023-01-26T13:14:33;60.07;43.13;80.77;;
49215;Laerm;45943;53.148;8.204;2023-01-26T13:30:31;58.41;43.89;71.44;;
49215;Laerm;45943;53.148;8.204;2023-01-26T13:33:11;49.06;43.89;71.92;;
49215;Laerm;45943;53.148;8.204;2023-01-26T13:35:38;54.52;43.19;70.96;;
49215;Laerm;45943;53.148;8.204;2023-01-26T13:38:17;47.94;43.48;66.83;;
49215;Laerm;45943;53.148;8.204;2023-01-26T13:40:46;57.11;43.89;71.36;;
49215;Laerm;45943;53.148;8.204;2023-01-26T13:43:20;56.37;43.42;69.86;;
49215;Laerm;45943;53.148;8.204;2023-01-26T13:48:35;54.56;43.84;67.77;;
49215;Laerm;45943;53.148;8.204;2023-01-26T13:51:06;55.48;43.31;68.83;;
49215;Laerm;45943;53.148;8.204;2023-01-26T13:53:36;54.67;43.55;68.64;;
49215;Laerm;45943;53.148;8.204;2023-01-26T13:56:05;54.78;42.89;73.25;;
49215;Laerm;45943;53.148;8.204;2023-01-26T13:58:32;53.05;43.42;70.15;;
49215;Laerm;45943;53.148;8.204;2023-01-26T14:01:06;55.42;43.99;68.33;;
49215;Laerm;45943;53.148;8.204;2023-01-26T14:03:36;52.14;43.31;67.49;;
49215;Laerm;45943;53.148;8.204;2023-01-26T14:06:20;54.79;43.31;68.49;;
49215;Laerm;45943;53.148;8.204;2023-01-26T14:08:54;57.31;44.50;69.82;;
49215;Laerm;45943;53.148;8.204;2023-01-26T14:11:26;54.56;43.79;70.08;;
49215;Laerm;45943;53.148;8.204;2023-01-26T14:13:55;53.35;43.07;68.94;;
49215;Laerm;45943;53.148;8.204;2023-01-26T14:16:27;52.57;43.48;66.26;;
49215;Laerm;45943;53.148;8.204;2023-01-26T14:24:15;54.21;43.69;69.15;;
49215;Laerm;45943;53.148;8.204;2023-01-26T14:26:42;57.61;43.99;71.76;;
49215;Laerm;45943;53.148;8.204;2023-01-26T14:29:22;59.90;43.36;74.23;;
49215;Laerm;45943;53.148;8.204;2023-01-26T14:31:50;53.60;42.42;68.38;;
49215;Laerm;45943;53.148;8.204;2023-01-26T14:34:23;55.41;43.36;69.14;;
49215;Laerm;45943;53.148;8.204;2023-01-26T14:37:12;56.20;43.31;75.40;;
49215;Laerm;45943;53.148;8.204;2023-01-26T14:39:39;59.50;43.19;72.72;;
49215;Laerm;45943;53.148;8.204;2023-01-26T14:42:05;55.51;43.31;68.06;;
49215;Laerm;45943;53.148;8.204;2023-01-26T14:44:31;52.86;43.01;66.90;;
49215;Laerm;45943;53.148;8.204;2023-01-26T14:47:14;54.31;43.31;67.35;;
49215;Laerm;45943;53.148;8.204;2023-01-26T14:49:48;57.62;43.07;75.48;;
49215;Laerm;45943;53.148;8.204;2023-01-26T14:52:21;54.19;44.04;70.75;;
49215;Laerm;45943;53.148;8.204;2023-01-26T14:54:50;56.55;43.79;77.60;;
49215;Laerm;45943;53.148;8.204;2023-01-26T14:57:21;59.48;44.09;75.00;;
49215;Laerm;45943;53.148;8.204;2023-01-26T14:59:56;53.42;43.25;67.38;;
49215;Laerm;45943;53.148;8.204;2023-01-26T15:02:35;53.90;43.53;70.12;;
49215;Laerm;45943;53.148;8.204;2023-01-26T15:05:11;53.95;43.74;68.03;;
49215;Laerm;45943;53.148;8.204;2023-01-26T15:08:04;55.11;42.49;67.46;;
49215;Laerm;45943;53.148;8.204;2023-01-26T15:10:34;59.51;43.74;78.48;;
49215;Laerm;45943;53.148;8.204;2023-01-26T15:13:06;53.56;43.48;67.08;;
49215;Laerm;45943;53.148;8.204;2023-01-26T15:15:35;54.85;42.13;75.49;;
49215;Laerm;45943;53.148;8.204;2023-01-26T15:23:32;54.16;43.13;70.80;;
49215;Laerm;45943;53.148;8.204;2023-01-26T15:26:25;54.23;43.65;72.14;;